Time;durP1;ratioP1;P1;durP2;ratioP2;P2;SDS_P1;SDS_P2;PMS_P1;PMS_P2;Temp;Humidity;BMP_temperature;BMP_pressure;BME280_temperature;BME280_humidity;BME280_pressure;Samples;Min_cycle;Max_cycle;Signal;HPM_P1;HPM_P2
2021/09/30 00:00:27;;;;;;;0.20;0.20;;;;;;;8.46;100.00;100950.72;5099600;28;20051;-81
2021/09/30 00:02:55;;;;;;;0.20;0.20;;;;;;;8.43;100.00;100948.50;5100336;28;20062;-80
2021/09/30 00:05:29;;;;;;;0.30;0.30;;;;;;;8.45;100.00;100954.50;5102415;28;20058;-80
2021/09/30 00:08:03;;;;;;;0.30;0.30;;;;;;;8.46;100.00;100961.56;5090605;28;20059;-81
2021/09/30 00:10:33;;;;;;;0.10;0.10;;;;;;;8.50;100.00;100968.91;5097358;28;20052;-80
2021/09/30 00:13:13;;;;;;;0.20;0.20;;;;;;;8.48;100.00;100965.66;5095481;28;20059;-80
2021/09/30 00:15:54;;;;;;;0.20;0.20;;;;;;;8.54;100.00;100963.00;5097053;28;20040;-80
2021/09/30 00:32:46;;;;;;;0.20;0.20;;;;;;;8.42;100.00;100980.19;5095147;28;20028;-80
2021/09/30 00:35:45;;;;;;;0.20;0.20;;;;;;;8.43;100.00;100986.47;5096660;28;20062;-80
2021/09/30 00:41:24;;;;;;;0.55;0.30;;;;;;;8.47;100.00;100974.06;5061645;28;20047;-79
2021/09/30 00:46:58;;;;;;;0.20;0.20;;;;;;;8.34;100.00;100981.50;5092551;27;20048;-80
2021/09/30 00:49:35;;;;;;;0.20;0.20;;;;;;;8.42;100.00;100991.03;5095847;28;20048;-79
2021/09/30 00:52:13;;;;;;;0.22;0.22;;;;;;;8.47;100.00;100993.84;5093674;28;20046;-79
2021/09/30 02:19:17;;;;;;;0.20;0.20;;;;;;;8.65;100.00;101030.63;5070105;28;20053;-81
2021/09/30 02:25:06;;;;;;;0.20;0.20;;;;;;;8.65;100.00;101032.53;5036029;28;20040;-81
2021/09/30 02:31:00;;;;;;;0.30;0.30;;;;;;;8.66;100.00;101045.03;4998256;28;20049;-83
2021/09/30 02:59:28;;;;;;;0.28;0.28;;;;;;;8.54;100.00;101058.75;5052711;28;20056;-80
2021/09/30 03:02:05;;;;;;;0.40;0.38;;;;;;;8.55;100.00;101057.66;5031002;28;20049;-81
2021/09/30 03:04:41;;;;;;;0.30;0.30;;;;;;;8.59;100.00;101076.94;5038683;28;20063;-81
2021/09/30 03:07:16;;;;;;;0.20;0.20;;;;;;;8.59;100.00;101075.06;5032273;28;20053;-80
2021/09/30 03:09:51;;;;;;;0.30;0.30;;;;;;;8.58;100.00;101067.19;5030958;28;20049;-82
2021/09/30 03:12:28;;;;;;;0.30;0.30;;;;;;;8.51;100.00;101070.91;5020230;28;20057;-81
2021/09/30 03:15:04;;;;;;;0.20;0.20;;;;;;;8.55;100.00;101075.81;5033288;28;20057;-81
2021/09/30 03:17:44;;;;;;;0.20;0.20;;;;;;;8.60;100.00;101094.88;5017705;28;20058;-81
2021/09/30 03:20:40;;;;;;;0.30;0.30;;;;;;;8.55;100.00;101083.97;5017889;28;20046;-81
2021/09/30 03:23:09;;;;;;;0.30;0.30;;;;;;;8.61;100.00;101091.09;5019677;28;20052;-82
2021/09/30 03:25:41;;;;;;;0.20;0.20;;;;;;;8.52;100.00;101101.59;5021635;28;20056;-81
2021/09/30 03:28:18;;;;;;;0.20;0.20;;;;;;;8.53;100.00;101107.81;5018050;28;20060;-82
2021/09/30 03:30:53;;;;;;;0.30;0.30;;;;;;;8.54;100.00;101104.84;5036062;28;20041;-82
2021/09/30 03:33:23;;;;;;;0.30;0.30;;;;;;;8.56;100.00;101105.44;5016448;28;20057;-82
2021/09/30 03:36:02;;;;;;;0.50;0.38;;;;;;;8.51;100.00;101116.22;5017931;28;20049;-81
2021/09/30 03:38:36;;;;;;;0.65;0.30;;;;;;;8.51;100.00;101108.09;5017514;28;21828;-82
2021/09/30 03:41:11;;;;;;;0.20;0.20;;;;;;;8.44;100.00;101116.38;5019423;28;20041;-81
2021/09/30 03:43:44;;;;;;;0.30;0.30;;;;;;;8.43;100.00;101109.31;5032258;28;20053;-81
2021/09/30 03:46:20;;;;;;;0.38;0.30;;;;;;;8.37;100.00;101107.63;5019876;28;20410;-80
2021/09/30 03:49:21;;;;;;;0.30;0.30;;;;;;;8.40;100.00;101122.59;5033799;28;20405;-80
2021/09/30 03:52:01;;;;;;;0.30;0.30;;;;;;;8.36;100.00;101116.03;5016580;28;20053;-80
2021/09/30 03:54:40;;;;;;;0.40;0.20;;;;;;;8.31;100.00;101124.91;5021324;28;20049;-80
2021/09/30 03:57:24;;;;;;;0.20;0.20;;;;;;;8.31;100.00;101123.03;5021173;28;20048;-81
2021/09/30 03:59:52;;;;;;;0.30;0.25;;;;;;;8.31;100.00;101127.63;5019477;28;20038;-80
2021/09/30 04:02:47;;;;;;;0.20;0.20;;;;;;;8.32;100.00;101131.97;5035597;28;20037;-80
2021/09/30 04:05:20;;;;;;;0.60;0.30;;;;;;;8.17;100.00;101136.16;5021800;28;20064;-81
2021/09/30 04:07:48;;;;;;;0.30;0.30;;;;;;;8.11;100.00;101136.34;5042493;28;20041;-81
2021/09/30 04:10:21;;;;;;;0.30;0.30;;;;;;;8.04;100.00;101138.41;5022552;28;20045;-81
2021/09/30 04:12:51;;;;;;;0.28;0.28;;;;;;;8.09;100.00;101136.59;5041509;28;20056;-81
2021/09/30 04:15:24;;;;;;;0.30;0.30;;;;;;;8.17;100.00;101154.31;5015576;28;20050;-80
2021/09/30 04:17:58;;;;;;;0.40;0.40;;;;;;;8.21;100.00;101152.72;5019057;28;20057;-80
2021/09/30 04:20:31;;;;;;;0.38;0.30;;;;;;;8.20;100.00;101156.50;5030105;28;20179;-81
2021/09/30 04:23:07;;;;;;;0.30;0.30;;;;;;;8.17;100.00;101152.44;5020614;28;20037;-80
2021/09/30 04:25:40;;;;;;;0.20;0.20;;;;;;;8.19;100.00;101146.75;5040192;28;20041;-80
2021/09/30 04:28:10;;;;;;;0.20;0.20;;;;;;;8.23;100.00;101164.16;5035661;28;20529;-81
2021/09/30 04:30:43;;;;;;;0.30;0.30;;;;;;;8.27;100.00;101168.00;5020983;28;20489;-80
2021/09/30 04:33:31;;;;;;;0.32;0.32;;;;;;;8.31;100.00;101168.28;5018713;28;20112;-81
2021/09/30 04:36:04;;;;;;;0.20;0.20;;;;;;;8.29;100.00;101160.41;5014734;28;20057;-81
2021/09/30 04:38:33;;;;;;;0.30;0.30;;;;;;;8.21;100.00;101163.56;5035033;28;20056;-80
2021/09/30 04:41:06;;;;;;;0.30;0.30;;;;;;;8.22;100.00;101165.22;5013686;28;20374;-81
2021/09/30 04:43:40;;;;;;;0.20;0.20;;;;;;;8.26;100.00;101165.50;5011640;28;20049;-80
2021/09/30 04:46:15;;;;;;;0.20;0.20;;;;;;;8.22;100.00;101169.84;5020816;28;20054;-81
2021/09/30 04:48:56;;;;;;;0.20;0.20;;;;;;;8.17;100.00;101176.00;5019093;28;20056;-81
2021/09/30 04:51:30;;;;;;;0.30;0.30;;;;;;;8.15;100.00;101170.81;5031218;28;20046;-81
2021/09/30 04:53:58;;;;;;;0.30;0.30;;;;;;;8.17;100.00;101186.84;5016876;28;20076;-81
2021/09/30 04:56:27;;;;;;;0.20;0.20;;;;;;;8.19;100.00;101184.72;5028364;28;20050;-80
2021/09/30 04:59:09;;;;;;;0.20;0.20;;;;;;;8.20;100.00;101185.50;5017254;28;21386;-81
2021/09/30 05:01:49;;;;;;;0.30;0.30;;;;;;;8.16;100.00;101190.59;5012979;28;20072;-81
2021/09/30 05:04:22;;;;;;;0.20;0.20;;;;;;;8.25;100.00;101183.69;5014738;28;20549;-81
2021/09/30 05:06:55;;;;;;;0.20;0.20;;;;;;;8.18;100.00;101181.16;5012523;28;20057;-80
2021/09/30 05:09:25;;;;;;;0.20;0.20;;;;;;;8.18;100.00;101174.94;5017444;28;20048;-80
2021/09/30 05:12:02;;;;;;;0.20;0.20;;;;;;;8.12;100.00;101186.75;5016404;28;20042;-81
2021/09/30 05:14:38;;;;;;;0.23;0.23;;;;;;;8.22;100.00;101183.38;5012142;28;20057;-81
2021/09/30 05:17:13;;;;;;;0.23;0.23;;;;;;;8.18;100.00;101188.47;5016440;28;20784;-81
2021/09/30 05:19:50;;;;;;;0.30;0.30;;;;;;;8.15;100.00;101184.38;5018340;28;20050;-81
2021/09/30 05:22:25;;;;;;;0.40;0.40;;;;;;;8.05;100.00;101196.97;5017038;28;20053;-81
2021/09/30 05:24:58;;;;;;;0.30;0.30;;;;;;;8.09;100.00;101198.09;5034124;28;20049;-80
2021/09/30 05:27:33;;;;;;;0.20;0.20;;;;;;;8.13;100.00;101196.53;5012903;28;20049;-80
2021/09/30 05:30:09;;;;;;;0.30;0.30;;;;;;;8.10;100.00;101195.16;5015371;28;20524;-80
2021/09/30 05:32:42;;;;;;;0.20;0.20;;;;;;;8.15;100.00;101210.69;5012988;28;20050;-80
2021/09/30 05:35:19;;;;;;;0.20;0.20;;;;;;;8.11;100.00;101207.63;5012255;28;20068;-81
2021/09/30 05:37:55;;;;;;;0.20;0.20;;;;;;;8.15;100.00;101222.34;5017409;28;20470;-81
2021/09/30 05:40:29;;;;;;;0.20;0.20;;;;;;;8.21;100.00;101206.16;5016797;28;20049;-81
2021/09/30 05:43:04;;;;;;;0.40;0.20;;;;;;;8.10;100.00;101233.09;5012722;28;20053;-80
2021/09/30 05:45:41;;;;;;;0.20;0.20;;;;;;;8.13;100.00;101234.50;5029149;28;20053;-80
2021/09/30 05:48:16;;;;;;;0.20;0.20;;;;;;;8.17;100.00;101243.78;5018140;28;20174;-80
2021/09/30 05:50:49;;;;;;;0.20;0.20;;;;;;;8.13;100.00;101232.63;5019402;28;20053;-81
2021/09/30 05:53:54;;;;;;;0.30;0.30;;;;;;;8.12;100.00;101236.41;5019041;28;20076;-80
2021/09/30 05:56:39;;;;;;;0.10;0.10;;;;;;;8.24;100.00;101238.97;5012421;28;20522;-81
2021/09/30 05:59:19;;;;;;;0.22;0.22;;;;;;;8.08;100.00;101237.97;5021230;28;20045;-81
2021/09/30 06:10:40;;;;;;;0.30;0.30;;;;;;;8.10;100.00;101265.63;5010148;28;20049;-81
2021/09/30 06:13:15;;;;;;;0.20;0.20;;;;;;;8.13;100.00;101259.72;5031644;28;20417;-81
2021/09/30 06:15:50;;;;;;;0.13;0.13;;;;;;;8.16;100.00;101259.22;5030328;28;20049;-82
2021/09/30 06:18:24;;;;;;;0.15;0.15;;;;;;;8.15;100.00;101271.13;5009546;28;20058;-81
2021/09/30 06:20:58;;;;;;;0.30;0.30;;;;;;;8.13;100.00;101259.72;5016062;28;20563;-80
2021/09/30 06:23:31;;;;;;;0.20;0.20;;;;;;;8.17;100.00;101274.44;5012270;28;20041;-81
2021/09/30 06:26:05;;;;;;;0.20;0.20;;;;;;;8.19;100.00;101266.03;5015302;28;20049;-81
2021/09/30 06:28:49;;;;;;;0.28;0.28;;;;;;;8.19;100.00;101274.19;5012673;28;20053;-82
2021/09/30 06:31:23;;;;;;;0.10;0.10;;;;;;;8.15;100.00;101270.31;5024418;28;20060;-80
2021/09/30 06:34:18;;;;;;;0.32;0.20;;;;;;;8.14;100.00;101277.63;5011764;28;20058;-81
2021/09/30 06:37:03;;;;;;;0.20;0.20;;;;;;;8.17;100.00;101276.31;5008164;28;20053;-80
2021/09/30 06:39:35;;;;;;;0.20;0.20;;;;;;;8.21;100.00;101279.34;5013186;28;21999;-80
2021/09/30 06:42:09;;;;;;;0.20;0.20;;;;;;;8.26;100.00;101292.97;5006850;28;20061;-80
2021/09/30 06:44:48;;;;;;;0.20;0.20;;;;;;;8.29;100.00;101287.06;5030048;28;20061;-81
2021/09/30 06:47:42;;;;;;;0.20;0.20;;;;;;;8.30;100.00;101296.81;5029360;28;20052;-81
2021/09/30 06:50:40;;;;;;;0.20;0.20;;;;;;;8.32;100.00;101303.63;5030767;28;20068;-80
2021/09/30 06:53:25;;;;;;;0.30;0.30;;;;;;;8.45;100.00;101290.81;5031847;28;20075;-80
2021/09/30 06:56:13;;;;;;;0.20;0.20;;;;;;;8.57;100.00;101296.16;5042004;28;20492;-82
2021/09/30 06:59:21;;;;;;;0.20;0.20;;;;;;;8.72;100.00;101306.38;5030881;28;20060;-82
2021/09/30 07:02:17;;;;;;;0.20;0.20;;;;;;;8.85;100.00;101298.69;5038710;28;20827;-82
2021/09/30 07:05:16;;;;;;;0.20;0.20;;;;;;;8.96;100.00;101310.50;4984416;28;20077;-82
2021/09/30 07:08:07;;;;;;;0.20;0.20;;;;;;;9.02;100.00;101312.19;5000865;28;21352;-81
2021/09/30 07:10:40;;;;;;;0.20;0.20;;;;;;;9.03;100.00;101323.84;5014547;28;20064;-81
2021/09/30 07:13:16;;;;;;;0.30;0.30;;;;;;;9.06;100.00;101317.94;5008613;28;20049;-81
2021/09/30 07:15:50;;;;;;;0.20;0.20;;;;;;;9.19;100.00;101325.66;5004393;28;20044;-82
2021/09/30 07:18:23;;;;;;;0.20;0.20;;;;;;;9.21;99.70;101321.88;5008182;28;20042;-81
2021/09/30 07:21:00;;;;;;;0.30;0.30;;;;;;;9.19;100.00;101330.28;4988786;28;20057;-81
2021/09/30 07:23:34;;;;;;;0.35;0.20;;;;;;;9.25;100.00;101334.69;5008940;28;20056;-82
2021/09/30 07:26:09;;;;;;;0.30;0.20;;;;;;;9.34;100.00;101329.63;5014524;28;20045;-81
2021/09/30 07:28:42;;;;;;;0.30;0.30;;;;;;;9.35;100.00;101334.81;5009092;28;20052;-81
2021/09/30 07:31:15;;;;;;;0.40;0.30;;;;;;;9.44;98.47;101335.16;5000471;28;20623;-82
2021/09/30 07:33:48;;;;;;;0.20;0.20;;;;;;;9.51;100.00;101343.13;4983323;28;20702;-81
2021/09/30 07:36:23;;;;;;;0.30;0.30;;;;;;;9.61;100.00;101340.50;4994166;28;20060;-83
2021/09/30 07:38:58;;;;;;;0.20;0.20;;;;;;;9.75;98.48;101340.06;4985751;28;20060;-82
2021/09/30 07:41:31;;;;;;;0.20;0.20;;;;;;;9.91;98.84;101344.56;4993628;28;21254;-80
2021/09/30 07:44:05;;;;;;;0.20;0.20;;;;;;;9.94;96.79;101352.19;4990410;28;20049;-81
2021/09/30 07:46:41;;;;;;;0.20;0.20;;;;;;;9.84;96.78;101342.06;5002817;28;20056;-80
2021/09/30 07:49:10;;;;;;;0.20;0.20;;;;;;;9.80;97.63;101351.81;5005383;28;20057;-80
2021/09/30 07:51:40;;;;;;;0.30;0.30;;;;;;;9.94;98.41;101354.09;5004655;28;20647;-82
2021/09/30 07:54:10;;;;;;;0.20;0.20;;;;;;;9.92;98.54;101373.41;4985909;28;20060;-80
2021/09/30 07:56:44;;;;;;;0.22;0.22;;;;;;;10.00;96.34;101355.81;5001558;28;20052;-80
2021/09/30 07:59:17;;;;;;;0.17;0.13;;;;;;;10.00;98.23;101370.22;4985357;28;20129;-79
2021/09/30 08:01:45;;;;;;;0.20;0.20;;;;;;;10.01;95.10;101363.72;4985234;28;20065;-80
2021/09/30 08:04:18;;;;;;;0.30;0.30;;;;;;;9.95;98.67;101378.31;4988649;28;20053;-80
2021/09/30 08:06:54;;;;;;;0.20;0.20;;;;;;;9.84;95.30;101380.13;5006762;28;20049;-81
2021/09/30 08:09:28;;;;;;;0.20;0.20;;;;;;;9.88;98.45;101391.31;5005658;28;20049;-80
2021/09/30 08:12:04;;;;;;;0.25;0.20;;;;;;;9.81;96.97;101372.47;5005154;28;20053;-80
2021/09/30 08:14:38;;;;;;;0.20;0.20;;;;;;;9.81;95.95;101388.00;5011444;28;20049;-81
2021/09/30 08:17:06;;;;;;;0.25;0.25;;;;;;;9.80;96.61;101392.59;4989467;28;20054;-81
2021/09/30 08:19:34;;;;;;;0.20;0.20;;;;;;;9.82;96.43;101395.88;5010994;28;20045;-80
2021/09/30 08:22:03;;;;;;;0.10;0.10;;;;;;;9.77;95.25;101390.38;4981902;28;20064;-81
2021/09/30 08:24:33;;;;;;;0.20;0.20;;;;;;;9.83;95.13;101397.53;4984565;28;20123;-81
2021/09/30 08:27:09;;;;;;;0.22;0.22;;;;;;;9.74;94.75;101385.47;4986395;28;20061;-81
2021/09/30 08:29:43;;;;;;;0.20;0.20;;;;;;;9.92;95.68;101399.78;5006669;28;20064;-81
2021/09/30 08:32:16;;;;;;;0.20;0.20;;;;;;;9.93;96.56;101404.97;5006763;28;20065;-81
2021/09/30 08:34:49;;;;;;;0.20;0.20;;;;;;;9.96;96.59;101419.94;5000125;28;20469;-81
2021/09/30 08:37:22;;;;;;;0.30;0.30;;;;;;;9.99;95.58;101405.81;5012127;28;20045;-82
2021/09/30 08:39:58;;;;;;;0.20;0.20;;;;;;;9.92;94.73;101411.47;5010109;28;20541;-81
2021/09/30 08:42:31;;;;;;;0.20;0.20;;;;;;;9.90;93.84;101418.25;4986436;28;20774;-82
2021/09/30 08:45:05;;;;;;;0.20;0.20;;;;;;;9.91;96.49;101423.41;4990900;28;20068;-83
2021/09/30 08:47:39;;;;;;;0.40;0.40;;;;;;;9.98;95.46;101417.78;5010956;28;20057;-81
2021/09/30 08:50:13;;;;;;;0.28;0.28;;;;;;;10.09;96.52;101414.06;4983654;28;20057;-82
2021/09/30 08:52:46;;;;;;;0.30;0.30;;;;;;;10.19;92.73;101430.50;5004020;28;20050;-82
2021/09/30 08:55:21;;;;;;;0.20;0.20;;;;;;;10.42;94.06;101438.59;4988660;28;20062;-82
2021/09/30 08:57:54;;;;;;;0.30;0.30;;;;;;;10.58;91.89;101432.19;5007658;28;20675;-82
2021/09/30 09:00:28;;;;;;;0.30;0.30;;;;;;;10.74;91.25;101424.91;5001763;28;20049;-82
2021/09/30 09:03:02;;;;;;;0.25;0.25;;;;;;;10.86;90.40;101431.00;4983188;28;21266;-82
2021/09/30 09:05:37;;;;;;;0.20;0.20;;;;;;;11.04;90.17;101420.75;5007518;28;21208;-82
2021/09/30 09:08:11;;;;;;;0.30;0.30;;;;;;;11.11;89.16;101420.50;5003208;28;20054;-81
2021/09/30 09:10:46;;;;;;;0.30;0.30;;;;;;;11.25;88.45;101429.03;5005854;28;20057;-82
2021/09/30 09:13:17;;;;;;;0.30;0.20;;;;;;;11.31;90.30;101433.38;5001136;28;20675;-82
2021/09/30 09:15:57;;;;;;;0.28;0.28;;;;;;;11.23;89.61;101432.81;5009153;28;20054;-82
2021/09/30 09:18:32;;;;;;;0.20;0.20;;;;;;;11.11;88.15;101428.69;5005502;28;20049;-81
2021/09/30 09:21:05;;;;;;;0.40;0.30;;;;;;;11.08;89.22;101440.94;5010737;28;20064;-81
2021/09/30 09:23:52;;;;;;;0.20;0.20;;;;;;;11.22;90.46;101442.06;5011927;28;20060;-81
2021/09/30 09:26:31;;;;;;;0.20;0.20;;;;;;;11.17;87.85;101438.50;4987351;28;20068;-82
2021/09/30 09:29:07;;;;;;;0.22;0.22;;;;;;;11.16;89.86;101458.69;4984241;28;20492;-82
2021/09/30 09:31:41;;;;;;;0.20;0.20;;;;;;;11.15;90.79;101443.41;5003191;28;20060;-81
2021/09/30 09:34:19;;;;;;;0.30;0.30;;;;;;;11.17;89.02;101455.69;5008895;28;20049;-82
2021/09/30 09:36:54;;;;;;;0.50;0.30;;;;;;;11.25;87.35;101454.34;4988335;28;20104;-82
2021/09/30 09:39:35;;;;;;;0.20;0.20;;;;;;;11.30;91.00;101461.75;4990981;28;20819;-81
2021/09/30 09:42:14;;;;;;;0.20;0.20;;;;;;;11.46;88.03;101440.81;4985011;28;20476;-82
2021/09/30 09:44:52;;;;;;;0.20;0.20;;;;;;;11.49;88.39;101456.63;5008831;28;20942;-82
2021/09/30 09:47:28;;;;;;;0.30;0.30;;;;;;;11.73;86.96;101462.44;5003207;28;20053;-82
2021/09/30 09:50:15;;;;;;;0.20;0.20;;;;;;;11.73;88.72;101454.25;4986053;28;21696;-83
2021/09/30 09:52:51;;;;;;;0.30;0.30;;;;;;;11.86;87.09;101470.13;5012791;28;20049;-81
2021/09/30 09:55:26;;;;;;;0.30;0.30;;;;;;;12.05;89.07;101464.97;5002577;28;20057;-81
2021/09/30 09:58:06;;;;;;;0.40;0.40;;;;;;;12.04;88.39;101455.19;4985874;28;21736;-81
2021/09/30 10:00:36;;;;;;;0.20;0.20;;;;;;;12.10;84.78;101452.44;5002712;28;20061;-82
2021/09/30 10:03:15;;;;;;;0.30;0.30;;;;;;;12.08;84.75;101458.16;4985814;28;21204;-80
2021/09/30 10:05:44;;;;;;;0.30;0.30;;;;;;;12.06;84.97;101457.63;4986391;28;20811;-82
2021/09/30 10:08:14;;;;;;;0.25;0.25;;;;;;;12.03;86.72;101453.53;5005078;28;20046;-83
2021/09/30 10:10:49;;;;;;;0.20;0.20;;;;;;;12.19;83.38;101448.09;5006610;28;20054;-83
2021/09/30 10:13:26;;;;;;;0.20;0.20;;;;;;;12.25;85.04;101460.66;5005736;28;20049;-81
2021/09/30 10:15:56;;;;;;;0.38;0.30;;;;;;;12.22;85.64;101462.03;4983940;28;20061;-81
2021/09/30 10:18:29;;;;;;;0.20;0.20;;;;;;;12.12;84.81;101464.72;4987838;28;20053;-81
2021/09/30 10:21:02;;;;;;;0.30;0.30;;;;;;;12.00;82.22;101465.00;4983988;28;20053;-82
2021/09/30 10:23:38;;;;;;;0.30;0.30;;;;;;;12.04;80.47;101471.56;5006143;28;20734;-81
2021/09/30 10:26:13;;;;;;;0.25;0.25;;;;;;;12.07;81.22;101467.47;5013551;28;20045;-81
2021/09/30 10:28:47;;;;;;;0.30;0.30;;;;;;;12.24;81.83;101478.13;4984164;28;20061;-82
2021/09/30 10:31:25;;;;;;;0.28;0.28;;;;;;;12.55;79.38;101475.41;4982922;28;20083;-81
2021/09/30 10:34:00;;;;;;;0.20;0.20;;;;;;;12.46;81.28;101482.50;5000461;28;20061;-81
2021/09/30 10:36:35;;;;;;;0.20;0.20;;;;;;;12.51;82.66;101486.06;5005887;28;21345;-82
2021/09/30 10:39:24;;;;;;;0.20;0.20;;;;;;;12.70;80.96;101482.75;4991832;28;20049;-82
2021/09/30 10:42:00;;;;;;;0.35;0.30;;;;;;;12.71;80.43;101485.22;4986314;28;20064;-81
2021/09/30 10:44:36;;;;;;;0.30;0.30;;;;;;;12.67;85.68;101491.50;4986799;28;20054;-81
2021/09/30 10:47:21;;;;;;;0.32;0.32;;;;;;;12.63;80.04;101490.41;5004966;28;20556;-81
2021/09/30 10:49:57;;;;;;;0.30;0.30;;;;;;;12.60;78.96;101486.31;5015783;28;20045;-80
2021/09/30 10:52:31;;;;;;;0.30;0.30;;;;;;;12.61;82.94;101501.63;5007516;28;20046;-82
2021/09/30 10:55:27;;;;;;;0.22;0.22;;;;;;;12.62;79.95;101492.31;4990414;28;20049;-81
2021/09/30 10:58:02;;;;;;;0.20;0.20;;;;;;;12.60;79.52;101497.25;4984024;28;20053;-80
2021/09/30 11:00:58;;;;;;;0.28;0.28;;;;;;;12.58;80.62;101505.72;5005450;28;20060;-81
2021/09/30 11:03:31;;;;;;;0.25;0.25;;;;;;;12.62;81.20;101508.69;5015643;28;20895;-82
2021/09/30 11:06:17;;;;;;;0.20;0.20;;;;;;;12.91;82.50;101505.41;5000301;28;20060;-81
2021/09/30 11:09:11;;;;;;;0.30;0.30;;;;;;;12.80;82.10;101503.78;5006529;28;20057;-81
2021/09/30 11:11:41;;;;;;;0.20;0.20;;;;;;;12.64;79.04;101506.53;4999443;28;20068;-81
2021/09/30 11:14:24;;;;;;;0.28;0.28;;;;;;;12.50;79.51;101503.53;4989823;28;20064;-81
2021/09/30 11:16:59;;;;;;;0.25;0.25;;;;;;;12.73;82.16;101502.16;5008957;28;20052;-81
2021/09/30 11:19:38;;;;;;;0.28;0.28;;;;;;;12.87;80.24;101509.78;4986022;28;21522;-81
2021/09/30 11:22:13;;;;;;;0.22;0.22;;;;;;;13.28;79.88;101498.78;5005160;28;20204;-81
2021/09/30 11:24:53;;;;;;;0.60;0.40;;;;;;;13.04;78.30;101502.09;4992532;28;20061;-81
2021/09/30 11:27:33;;;;;;;0.30;0.30;;;;;;;13.10;77.77;101502.91;5005043;28;20382;-81
2021/09/30 11:30:20;;;;;;;0.20;0.20;;;;;;;13.02;77.63;101503.47;5011150;28;20509;-81
2021/09/30 11:32:59;;;;;;;0.20;0.20;;;;;;;13.32;76.63;101490.84;4986032;28;20066;-81
2021/09/30 11:35:28;;;;;;;0.20;0.20;;;;;;;13.26;74.14;101501.78;5006502;28;20115;-81
2021/09/30 11:38:03;;;;;;;0.25;0.25;;;;;;;13.12;73.53;101494.44;5004229;28;20111;-82
2021/09/30 11:40:36;;;;;;;0.30;0.30;;;;;;;13.15;77.94;101504.84;5007839;28;20045;-81
2021/09/30 11:43:11;;;;;;;0.30;0.30;;;;;;;12.96;74.40;101507.31;4992295;28;20060;-81
2021/09/30 11:45:39;;;;;;;0.30;0.30;;;;;;;12.91;75.33;101519.06;4988143;28;20064;-82
2021/09/30 11:48:14;;;;;;;0.20;0.20;;;;;;;12.89;76.29;101527.53;4997298;28;20068;-81
2021/09/30 11:50:56;;;;;;;0.20;0.20;;;;;;;12.69;74.66;101520.19;5007300;28;20393;-82
2021/09/30 11:53:30;;;;;;;0.30;0.30;;;;;;;12.66;76.01;101522.63;5015694;28;20053;-80
2021/09/30 11:56:04;;;;;;;0.20;0.20;;;;;;;12.62;75.54;101532.47;5010518;28;20046;-80
2021/09/30 11:58:32;;;;;;;0.20;0.20;;;;;;;12.58;76.54;101529.44;4996410;28;20052;-80
2021/09/30 12:01:06;;;;;;;0.20;0.20;;;;;;;12.49;81.44;101529.19;5013939;28;20753;-82
2021/09/30 12:03:45;;;;;;;0.20;0.20;;;;;;;12.40;76.21;101531.63;5012605;28;20577;-81
2021/09/30 12:06:19;;;;;;;0.20;0.20;;;;;;;12.49;77.04;101525.66;5015672;28;20049;-81
2021/09/30 12:08:58;;;;;;;0.20;0.20;;;;;;;12.51;74.53;101534.38;5015229;28;20053;-80
2021/09/30 12:11:34;;;;;;;0.32;0.30;;;;;;;12.79;69.92;101527.56;5017979;28;20050;-80
2021/09/30 12:14:04;;;;;;;0.20;0.20;;;;;;;12.82;72.31;101540.66;5015151;28;20057;-81
2021/09/30 12:16:56;;;;;;;0.30;0.30;;;;;;;12.95;73.55;101538.47;5013399;28;20064;-80
2021/09/30 12:19:32;;;;;;;0.20;0.20;;;;;;;12.97;70.22;101522.59;5014746;28;20057;-81
2021/09/30 12:22:09;;;;;;;0.22;0.22;;;;;;;13.13;69.51;101531.59;5014360;28;20056;-81
2021/09/30 12:24:42;;;;;;;0.30;0.30;;;;;;;13.20;69.19;101527.50;5016804;28;21438;-80
2021/09/30 12:27:16;;;;;;;0.22;0.22;;;;;;;13.50;73.81;101527.72;5014833;28;20045;-81
2021/09/30 12:29:47;;;;;;;0.20;0.20;;;;;;;13.59;69.88;101526.06;4996839;28;20092;-82
2021/09/30 12:32:19;;;;;;;0.30;0.30;;;;;;;13.83;71.86;101530.88;4997063;28;20410;-81
2021/09/30 12:34:58;;;;;;;0.30;0.30;;;;;;;13.88;71.23;101544.50;4993089;28;20049;-81
2021/09/30 12:37:33;;;;;;;0.20;0.20;;;;;;;13.73;70.75;101543.50;4992462;28;20077;-81
2021/09/30 12:40:10;;;;;;;0.20;0.20;;;;;;;13.53;68.81;101538.91;5013066;28;20049;-81
2021/09/30 12:43:00;;;;;;;0.30;0.30;;;;;;;13.43;71.17;101547.97;5013786;28;20057;-82
2021/09/30 12:45:37;;;;;;;0.20;0.20;;;;;;;13.55;65.53;101541.38;5014209;28;20483;-81
2021/09/30 12:48:12;;;;;;;0.30;0.30;;;;;;;13.63;65.58;101545.44;5003250;28;20057;-82
2021/09/30 12:50:50;;;;;;;0.20;0.20;;;;;;;13.41;65.58;101552.09;5016922;28;20060;-82
2021/09/30 12:53:20;;;;;;;0.22;0.22;;;;;;;13.29;67.22;101549.63;4998628;28;20045;-82
2021/09/30 12:56:04;;;;;;;0.20;0.20;;;;;;;13.39;66.38;101552.34;5021553;28;20068;-80
2021/09/30 12:58:40;;;;;;;0.20;0.20;;;;;;;13.56;65.94;101553.94;4997116;28;20054;-81
2021/09/30 13:01:25;;;;;;;0.20;0.20;;;;;;;13.59;64.21;101546.00;5005331;28;20057;-81
2021/09/30 13:04:10;;;;;;;0.20;0.20;;;;;;;13.60;63.42;101546.81;5016033;28;20049;-81
2021/09/30 13:06:42;;;;;;;0.30;0.30;;;;;;;13.51;67.59;101554.78;5018491;28;20053;-80
2021/09/30 13:09:21;;;;;;;0.20;0.20;;;;;;;13.30;65.88;101551.25;4994890;28;20060;-81
2021/09/30 13:11:56;;;;;;;0.20;0.20;;;;;;;13.27;66.02;101551.78;4991682;28;20068;-81
2021/09/30 13:14:33;;;;;;;0.20;0.20;;;;;;;13.23;65.52;101553.44;4997126;28;20053;-80
2021/09/30 13:17:14;;;;;;;;;;;;;;;13.26;65.68;101555.66;4999574;28;20057;-80
2021/09/30 13:19:51;;;;;;;0.20;0.20;;;;;;;13.29;65.16;101560.56;5013631;28;20016;-82
2021/09/30 13:22:34;;;;;;;0.28;0.28;;;;;;;13.14;64.95;101531.34;5013568;28;20049;-82
2021/09/30 13:25:09;;;;;;;0.30;0.30;;;;;;;13.22;63.01;101543.63;4999657;28;20196;-80
2021/09/30 13:27:44;;;;;;;0.20;0.20;;;;;;;13.27;62.30;101543.59;5015144;28;20049;-80
2021/09/30 13:30:20;;;;;;;0.20;0.20;;;;;;;13.30;61.44;101537.59;5019474;28;20057;-79
2021/09/30 13:32:51;;;;;;;0.30;0.30;;;;;;;13.20;61.31;101540.34;5018982;28;20065;-79
2021/09/30 13:35:24;;;;;;;0.45;0.25;;;;;;;13.21;62.53;101536.50;5002528;28;20050;-80
2021/09/30 13:37:59;;;;;;;0.20;0.20;;;;;;;13.23;65.28;101540.63;4997289;28;20049;-79
2021/09/30 13:40:33;;;;;;;0.20;0.20;;;;;;;13.09;65.67;101534.91;4994654;28;20069;-78
2021/09/30 13:43:06;;;;;;;0.20;0.20;;;;;;;13.22;62.86;101543.63;4997485;28;20057;-79
2021/09/30 13:45:40;;;;;;;0.45;0.30;;;;;;;13.39;63.36;101551.53;5015259;28;20061;-79
2021/09/30 13:48:13;;;;;;;0.40;0.40;;;;;;;13.40;61.71;101531.31;5015043;28;20049;-79
2021/09/30 13:50:46;;;;;;;0.20;0.20;;;;;;;13.47;64.20;101542.75;5016118;28;20060;-79
2021/09/30 13:53:21;;;;;;;0.30;0.30;;;;;;;13.60;62.37;101538.63;5018088;28;20498;-79
2021/09/30 13:55:54;;;;;;;0.20;0.20;;;;;;;13.61;62.98;101552.00;5011227;28;20053;-79
2021/09/30 13:58:29;;;;;;;0.30;0.30;;;;;;;13.50;61.10;101541.41;4995842;28;20049;-80
2021/09/30 14:01:03;;;;;;;0.22;0.22;;;;;;;13.44;63.52;101541.41;4996829;28;20083;-80
2021/09/30 14:03:31;;;;;;;0.20;0.20;;;;;;;13.25;65.38;101534.88;4992987;28;20049;-80
2021/09/30 14:06:04;;;;;;;0.20;0.20;;;;;;;13.25;65.97;101548.53;4992716;28;20058;-79
2021/09/30 14:08:41;;;;;;;0.30;0.30;;;;;;;13.15;65.73;101549.38;5015251;28;20053;-80
2021/09/30 14:11:10;;;;;;;0.20;0.20;;;;;;;13.08;64.34;101541.44;4994474;28;20053;-80
2021/09/30 14:13:46;;;;;;;0.20;0.20;;;;;;;13.10;66.14;101544.75;5019124;28;20477;-80
2021/09/30 14:16:19;;;;;;;0.30;0.30;;;;;;;12.99;65.81;101551.28;5009800;28;20045;-80
2021/09/30 14:18:52;;;;;;;0.20;0.20;;;;;;;12.96;66.31;101549.13;4993025;28;20714;-80
2021/09/30 14:21:25;;;;;;;0.20;0.20;;;;;;;12.81;62.10;101544.47;5013129;28;20826;-80
2021/09/30 14:23:55;;;;;;;0.20;0.20;;;;;;;12.73;63.63;101542.28;4992538;28;20057;-81
2021/09/30 14:26:28;;;;;;;0.20;0.20;;;;;;;12.49;65.77;101540.09;5011679;28;20049;-80
2021/09/30 14:29:02;;;;;;;0.30;0.30;;;;;;;12.42;67.61;101545.81;5017931;28;20060;-79
2021/09/30 14:31:35;;;;;;;0.20;0.20;;;;;;;12.44;67.63;101540.09;4994900;28;20064;-81
2021/09/30 14:34:09;;;;;;;0.30;0.30;;;;;;;12.32;68.89;101545.81;4996978;28;20049;-79